Terminal Aerodrome Forecast
Issued by NWS Bismarck, ND

Home | Current Version | Previous Version | Text Only | Print | Product List | Glossary Off
Versions: 1 2 3 4 5 6 7 8 9 10 11 12 13 14 15 16

000
FTUS43 KBIS 190535
TAFISN
TAF
KISN 190535Z 1906/2006 19004KT P6SM FEW130 SCT250
     FM191300 20006KT P6SM FEW300
     FM191900 21008KT P6SM SKC
     FM192300 16005KT P6SM SKC=

USA.gov is the U.S. government's official web portal to all federal, state and local government web resources and services.